sensor_id;sensor_type;location;lat;lon;timestamp;P1;durP1;ratioP1;P2;durP2;ratioP2
24301;SDS011;12421;49.732;20.078;2023-03-14T00:07:09;5.90;;;3.40;;
24301;SDS011;12421;49.732;20.078;2023-03-14T00:17:14;6.00;;;2.90;;
24301;SDS011;12421;49.732;20.078;2023-03-14T00:27:18;5.60;;;3.20;;
24301;SDS011;12421;49.732;20.078;2023-03-14T00:37:21;5.10;;;3.00;;
24301;SDS011;12421;49.732;20.078;2023-03-14T00:47:25;6.80;;;2.90;;
24301;SDS011;12421;49.732;20.078;2023-03-14T00:57:29;4.80;;;2.80;;
24301;SDS011;12421;49.732;20.078;2023-03-14T01:07:33;5.50;;;3.30;;
24301;SDS011;12421;49.732;20.078;2023-03-14T01:17:37;8.00;;;3.30;;
24301;SDS011;12421;49.732;20.078;2023-03-14T01:27:43;4.20;;;2.50;;
24301;SDS011;12421;49.732;20.078;2023-03-14T01:37:47;6.30;;;3.10;;
24301;SDS011;12421;49.732;20.078;2023-03-14T01:47:54;8.80;;;3.40;;
24301;SDS011;12421;49.732;20.078;2023-03-14T01:57:58;5.70;;;3.50;;
24301;SDS011;12421;49.732;20.078;2023-03-14T02:08:27;7.60;;;3.10;;
24301;SDS011;12421;49.732;20.078;2023-03-14T02:28:58;5.80;;;3.10;;
24301;SDS011;12421;49.732;20.078;2023-03-14T02:49:16;5.90;;;3.60;;
24301;SDS011;12421;49.732;20.078;2023-03-14T02:59:20;6.30;;;2.80;;
24301;SDS011;12421;49.732;20.078;2023-03-14T03:09:27;6.40;;;2.80;;
24301;SDS011;12421;49.732;20.078;2023-03-14T03:19:32;5.50;;;2.50;;
24301;SDS011;12421;49.732;20.078;2023-03-14T03:29:36;4.80;;;3.00;;
24301;SDS011;12421;49.732;20.078;2023-03-14T03:39:40;5.80;;;2.50;;
24301;SDS011;12421;49.732;20.078;2023-03-14T03:49:44;7.70;;;2.80;;
24301;SDS011;12421;49.732;20.078;2023-03-14T03:59:47;5.20;;;2.90;;
24301;SDS011;12421;49.732;20.078;2023-03-14T04:09:50;6.00;;;2.60;;
24301;SDS011;12421;49.732;20.078;2023-03-14T04:20:06;3.90;;;2.40;;
24301;SDS011;12421;49.732;20.078;2023-03-14T04:30:15;5.40;;;3.20;;
24301;SDS011;12421;49.732;20.078;2023-03-14T04:40:27;6.60;;;2.80;;
24301;SDS011;12421;49.732;20.078;2023-03-14T04:50:35;5.10;;;2.40;;
24301;SDS011;12421;49.732;20.078;2023-03-14T05:00:39;5.20;;;2.40;;
24301;SDS011;12421;49.732;20.078;2023-03-14T05:10:58;6.60;;;3.30;;
24301;SDS011;12421;49.732;20.078;2023-03-14T05:21:21;16.50;;;3.70;;
24301;SDS011;12421;49.732;20.078;2023-03-14T05:31:43;7.20;;;3.60;;
24301;SDS011;12421;49.732;20.078;2023-03-14T05:42:25;5.20;;;2.50;;
24301;SDS011;12421;49.732;20.078;2023-03-14T05:52:40;9.60;;;3.00;;
24301;SDS011;12421;49.732;20.078;2023-03-14T06:02:43;8.50;;;2.30;;
24301;SDS011;12421;49.732;20.078;2023-03-14T06:12:53;5.10;;;2.80;;
24301;SDS011;12421;49.732;20.078;2023-03-14T06:22:56;11.50;;;2.50;;
24301;SDS011;12421;49.732;20.078;2023-03-14T06:33:00;4.50;;;2.50;;
24301;SDS011;12421;49.732;20.078;2023-03-14T06:43:06;7.60;;;4.20;;
24301;SDS011;12421;49.732;20.078;2023-03-14T06:53:11;9.70;;;3.50;;
24301;SDS011;12421;49.732;20.078;2023-03-14T07:03:16;7.40;;;3.30;;
24301;SDS011;12421;49.732;20.078;2023-03-14T07:13:23;8.70;;;4.50;;
24301;SDS011;12421;49.732;20.078;2023-03-14T07:23:32;7.90;;;3.90;;
24301;SDS011;12421;49.732;20.078;2023-03-14T07:33:36;8.30;;;3.80;;
24301;SDS011;12421;49.732;20.078;2023-03-14T07:43:40;5.20;;;2.00;;
24301;SDS011;12421;49.732;20.078;2023-03-14T07:53:43;4.50;;;2.10;;
24301;SDS011;12421;49.732;20.078;2023-03-14T08:03:46;4.50;;;2.30;;
24301;SDS011;12421;49.732;20.078;2023-03-14T08:13:50;5.90;;;2.30;;
24301;SDS011;12421;49.732;20.078;2023-03-14T08:23:54;8.20;;;1.80;;
24301;SDS011;12421;49.732;20.078;2023-03-14T08:33:58;3.40;;;1.60;;
24301;SDS011;12421;49.732;20.078;2023-03-14T08:44:02;7.40;;;2.20;;
24301;SDS011;12421;49.732;20.078;2023-03-14T08:54:05;4.70;;;1.80;;
24301;SDS011;12421;49.732;20.078;2023-03-14T09:04:09;5.30;;;2.20;;
24301;SDS011;12421;49.732;20.078;2023-03-14T09:14:12;5.50;;;2.50;;
24301;SDS011;12421;49.732;20.078;2023-03-14T09:24:17;6.50;;;3.20;;
24301;SDS011;12421;49.732;20.078;2023-03-14T09:34:21;5.50;;;2.00;;
24301;SDS011;12421;49.732;20.078;2023-03-14T09:44:32;5.50;;;2.60;;
24301;SDS011;12421;49.732;20.078;2023-03-14T09:54:49;5.80;;;2.50;;
24301;SDS011;12421;49.732;20.078;2023-03-14T10:05:18;4.80;;;2.70;;
24301;SDS011;12421;49.732;20.078;2023-03-14T10:15:24;5.10;;;2.80;;
24301;SDS011;12421;49.732;20.078;2023-03-14T10:25:38;6.10;;;3.40;;
24301;SDS011;12421;49.732;20.078;2023-03-14T10:35:56;5.80;;;2.50;;
24301;SDS011;12421;49.732;20.078;2023-03-14T10:46:14;5.70;;;3.10;;
24301;SDS011;12421;49.732;20.078;2023-03-14T10:56:40;5.30;;;2.70;;
24301;SDS011;12421;49.732;20.078;2023-03-14T11:27:22;4.70;;;2.80;;
24301;SDS011;12421;49.732;20.078;2023-03-14T11:37:33;4.60;;;2.00;;
24301;SDS011;12421;49.732;20.078;2023-03-14T11:47:43;3.30;;;1.60;;
24301;SDS011;12421;49.732;20.078;2023-03-14T11:57:50;4.30;;;2.00;;
24301;SDS011;12421;49.732;20.078;2023-03-14T12:28:31;6.10;;;3.30;;
24301;SDS011;12421;49.732;20.078;2023-03-14T12:48:39;4.80;;;2.20;;
24301;SDS011;12421;49.732;20.078;2023-03-14T12:59:05;6.20;;;2.70;;
24301;SDS011;12421;49.732;20.078;2023-03-14T13:19:32;4.80;;;2.70;;
24301;SDS011;12421;49.732;20.078;2023-03-14T13:29:37;5.40;;;3.00;;
24301;SDS011;12421;49.732;20.078;2023-03-14T13:39:40;5.80;;;3.20;;
24301;SDS011;12421;49.732;20.078;2023-03-14T13:49:44;5.50;;;3.10;;
24301;SDS011;12421;49.732;20.078;2023-03-14T13:59:58;6.40;;;3.30;;
24301;SDS011;12421;49.732;20.078;2023-03-14T14:20:22;9.50;;;4.20;;
24301;SDS011;12421;49.732;20.078;2023-03-14T14:40:31;10.80;;;4.50;;
24301;SDS011;12421;49.732;20.078;2023-03-14T14:50:38;12.60;;;5.70;;
24301;SDS011;12421;49.732;20.078;2023-03-14T15:11:25;17.70;;;6.50;;
24301;SDS011;12421;49.732;20.078;2023-03-14T15:21:29;16.60;;;7.40;;
24301;SDS011;12421;49.732;20.078;2023-03-14T15:31:33;9.80;;;5.50;;
24301;SDS011;12421;49.732;20.078;2023-03-14T15:41:39;11.40;;;5.20;;
24301;SDS011;12421;49.732;20.078;2023-03-14T15:51:42;12.70;;;6.20;;
24301;SDS011;12421;49.732;20.078;2023-03-14T16:01:45;7.50;;;4.70;;
24301;SDS011;12421;49.732;20.078;2023-03-14T16:11:50;8.00;;;4.70;;
24301;SDS011;12421;49.732;20.078;2023-03-14T16:21:57;9.20;;;4.50;;
24301;SDS011;12421;49.732;20.078;2023-03-14T16:32:01;8.10;;;4.60;;
24301;SDS011;12421;49.732;20.078;2023-03-14T16:42:05;11.00;;;6.90;;
24301;SDS011;12421;49.732;20.078;2023-03-14T16:52:09;10.90;;;5.80;;
24301;SDS011;12421;49.732;20.078;2023-03-14T17:02:12;16.00;;;10.50;;
24301;SDS011;12421;49.732;20.078;2023-03-14T17:12:15;14.70;;;10.80;;
24301;SDS011;12421;49.732;20.078;2023-03-14T17:22:19;13.90;;;9.70;;
24301;SDS011;12421;49.732;20.078;2023-03-14T17:32:26;29.70;;;21.20;;
24301;SDS011;12421;49.732;20.078;2023-03-14T17:42:31;20.60;;;12.90;;
24301;SDS011;12421;49.732;20.078;2023-03-14T17:52:35;22.80;;;14.20;;
24301;SDS011;12421;49.732;20.078;2023-03-14T18:02:39;14.30;;;10.00;;
24301;SDS011;12421;49.732;20.078;2023-03-14T18:12:45;5.30;;;2.90;;
24301;SDS011;12421;49.732;20.078;2023-03-14T18:22:48;5.50;;;3.20;;
24301;SDS011;12421;49.732;20.078;2023-03-14T18:32:52;6.00;;;3.10;;
24301;SDS011;12421;49.732;20.078;2023-03-14T18:42:55;4.90;;;2.90;;
24301;SDS011;12421;49.732;20.078;2023-03-14T18:52:58;4.40;;;2.00;;
24301;SDS011;12421;49.732;20.078;2023-03-14T19:03:03;3.80;;;2.00;;
24301;SDS011;12421;49.732;20.078;2023-03-14T19:13:07;5.40;;;1.80;;
24301;SDS011;12421;49.732;20.078;2023-03-14T19:23:11;5.50;;;3.00;;
24301;SDS011;12421;49.732;20.078;2023-03-14T19:33:17;4.90;;;3.10;;
24301;SDS011;12421;49.732;20.078;2023-03-14T19:43:21;6.60;;;3.90;;
24301;SDS011;12421;49.732;20.078;2023-03-14T19:53:24;6.30;;;3.70;;
24301;SDS011;12421;49.732;20.078;2023-03-14T20:03:27;6.20;;;3.70;;
24301;SDS011;12421;49.732;20.078;2023-03-14T20:13:31;6.50;;;3.90;;
24301;SDS011;12421;49.732;20.078;2023-03-14T20:23:34;6.80;;;4.00;;
24301;SDS011;12421;49.732;20.078;2023-03-14T20:33:38;7.50;;;3.60;;
24301;SDS011;12421;49.732;20.078;2023-03-14T20:43:41;7.40;;;3.80;;
24301;SDS011;12421;49.732;20.078;2023-03-14T20:53:45;5.30;;;3.10;;
24301;SDS011;12421;49.732;20.078;2023-03-14T21:03:49;4.90;;;2.60;;
24301;SDS011;12421;49.732;20.078;2023-03-14T21:13:52;3.40;;;1.90;;
24301;SDS011;12421;49.732;20.078;2023-03-14T21:23:56;3.70;;;1.60;;
24301;SDS011;12421;49.732;20.078;2023-03-14T21:33:59;3.00;;;1.40;;
24301;SDS011;12421;49.732;20.078;2023-03-14T21:44:03;3.00;;;1.60;;
24301;SDS011;12421;49.732;20.078;2023-03-14T21:54:06;2.90;;;1.40;;
24301;SDS011;12421;49.732;20.078;2023-03-14T22:04:13;2.10;;;1.10;;
24301;SDS011;12421;49.732;20.078;2023-03-14T22:14:16;2.70;;;1.30;;
24301;SDS011;12421;49.732;20.078;2023-03-14T22:24:19;3.50;;;1.60;;
24301;SDS011;12421;49.732;20.078;2023-03-14T22:34:23;2.60;;;1.50;;
24301;SDS011;12421;49.732;20.078;2023-03-14T22:44:33;2.30;;;1.30;;
24301;SDS011;12421;49.732;20.078;2023-03-14T22:54:37;3.10;;;1.80;;
24301;SDS011;12421;49.732;20.078;2023-03-14T23:04:40;4.20;;;1.90;;
24301;SDS011;12421;49.732;20.078;2023-03-14T23:14:45;2.60;;;1.50;;
24301;SDS011;12421;49.732;20.078;2023-03-14T23:24:48;3.80;;;2.30;;
24301;SDS011;12421;49.732;20.078;2023-03-14T23:34:57;3.20;;;1.70;;
24301;SDS011;12421;49.732;20.078;2023-03-14T23:45:01;2.40;;;1.50;;
24301;SDS011;12421;49.732;20.078;2023-03-14T23:55:04;5.20;;;2.00;;
